<?xml version="1.0" encoding="UTF-8" standalone="no" ?>
<gpx xmlns="http://www.topografix.com/GPX/1/1" xmlns:xsi="http://www.w3.org/2001/XMLSchema-instance" xsi:schemaLocation="http://www.topografix.com/GPX/1/1 http://www.topografix.com/GPX/1/1/gpx.xsd" version="1.1" creator="VisuGPX - https://www.visugpx.com">
  <metadata>
    <name>debalisage moitie du 35km ronde des bois etobon 2022</name>
  </metadata>
  <trk>
    <name><![CDATA[debalisage moitie du 35km ronde des bois etobon 2022_1]]></name>
    <trkseg>
      <trkpt lat="47.68568" lon="6.63885">
        <ele>447.5</ele>
        <time>2022-08-28T15:43:33.000Z</time>
      </trkpt>
      <trkpt lat="47.68581" lon="6.63881">
        <ele>447.1</ele>
        <time>2022-08-28T15:43:55.000Z</time>
      </trkpt>
      <trkpt lat="47.68575" lon="6.63874">
        <ele>446.2</ele>
        <time>2022-08-28T15:44:09.000Z</time>
      </trkpt>
      <trkpt lat="47.68588" lon="6.63888">
        <ele>446.9</ele>
        <time>2022-08-28T15:44:56.000Z</time>
      </trkpt>
      <trkpt lat="47.68582" lon="6.63896">
        <ele>448.8</ele>
        <time>2022-08-28T15:45:42.000Z</time>
      </trkpt>
      <trkpt lat="47.68585" lon="6.63915">
        <ele>450.5</ele>
        <time>2022-08-28T15:45:54.000Z</time>
      </trkpt>
      <trkpt lat="47.68583" lon="6.63955">
        <ele>454.8</ele>
        <time>2022-08-28T15:46:03.000Z</time>
      </trkpt>
      <trkpt lat="47.68569" lon="6.64033">
        <ele>460.7</ele>
        <time>2022-08-28T15:46:20.000Z</time>
      </trkpt>
      <trkpt lat="47.68557" lon="6.64071">
        <ele>462.8</ele>
        <time>2022-08-28T15:46:27.000Z</time>
      </trkpt>
      <trkpt lat="47.68546" lon="6.64093">
        <ele>462.1</ele>
        <time>2022-08-28T15:46:32.000Z</time>
      </trkpt>
      <trkpt lat="47.68528" lon="6.64117">
        <ele>460.8</ele>
        <time>2022-08-28T15:46:38.000Z</time>
      </trkpt>
      <trkpt lat="47.68499" lon="6.64139">
        <ele>459</ele>
        <time>2022-08-28T15:46:43.000Z</time>
      </trkpt>
      <trkpt lat="47.6839" lon="6.64171">
        <ele>456.4</ele>
        <time>2022-08-28T15:46:58.000Z</time>
      </trkpt>
      <trkpt lat="47.68363" lon="6.64169">
        <ele>455.8</ele>
        <time>2022-08-28T15:47:03.000Z</time>
      </trkpt>
      <trkpt lat="47.68339" lon="6.64158">
        <ele>455.5</ele>
        <time>2022-08-28T15:47:07.000Z</time>
      </trkpt>
      <trkpt lat="47.68315" lon="6.64138">
        <ele>455.4</ele>
        <time>2022-08-28T15:47:11.000Z</time>
      </trkpt>
      <trkpt lat="47.68299" lon="6.64119">
        <ele>455</ele>
        <time>2022-08-28T15:47:14.000Z</time>
      </trkpt>
      <trkpt lat="47.68273" lon="6.64074">
        <ele>453.7</ele>
        <time>2022-08-28T15:47:20.000Z</time>
      </trkpt>
      <trkpt lat="47.68172" lon="6.63854">
        <ele>448.6</ele>
        <time>2022-08-28T15:47:47.000Z</time>
      </trkpt>
      <trkpt lat="47.68147" lon="6.63819">
        <ele>447.2</ele>
        <time>2022-08-28T15:47:53.000Z</time>
      </trkpt>
      <trkpt lat="47.68094" lon="6.63761">
        <ele>446.3</ele>
        <time>2022-08-28T15:48:06.000Z</time>
      </trkpt>
      <trkpt lat="47.68072" lon="6.63794">
        <ele>442.8</ele>
        <time>2022-08-28T15:48:17.000Z</time>
      </trkpt>
      <trkpt lat="47.67985" lon="6.63956">
        <ele>441.5</ele>
        <time>2022-08-28T15:48:44.000Z</time>
      </trkpt>
      <trkpt lat="47.6796" lon="6.63994">
        <ele>443.1</ele>
        <time>2022-08-28T15:48:49.000Z</time>
      </trkpt>
      <trkpt lat="47.67934" lon="6.64022">
        <ele>441.5</ele>
        <time>2022-08-28T15:48:55.000Z</time>
      </trkpt>
      <trkpt lat="47.67902" lon="6.64044">
        <ele>442.8</ele>
        <time>2022-08-28T15:49:01.000Z</time>
      </trkpt>
      <trkpt lat="47.67816" lon="6.64083">
        <ele>441.7</ele>
        <time>2022-08-28T15:49:14.000Z</time>
      </trkpt>
      <trkpt lat="47.67701" lon="6.64148">
        <ele>435</ele>
        <time>2022-08-28T15:49:30.000Z</time>
      </trkpt>
      <trkpt lat="47.67617" lon="6.64184">
        <ele>437.4</ele>
        <time>2022-08-28T15:49:44.000Z</time>
      </trkpt>
      <trkpt lat="47.67589" lon="6.64187">
        <ele>442</ele>
        <time>2022-08-28T15:49:50.000Z</time>
      </trkpt>
      <trkpt lat="47.6754" lon="6.64173">
        <ele>445.6</ele>
        <time>2022-08-28T15:50:00.000Z</time>
      </trkpt>
      <trkpt lat="47.67406" lon="6.6411">
        <ele>441.5</ele>
        <time>2022-08-28T15:50:24.000Z</time>
      </trkpt>
      <trkpt lat="47.67306" lon="6.6407">
        <ele>434.6</ele>
        <time>2022-08-28T15:50:39.000Z</time>
      </trkpt>
      <trkpt lat="47.67292" lon="6.64069">
        <ele>433.3</ele>
        <time>2022-08-28T15:50:43.000Z</time>
      </trkpt>
      <trkpt lat="47.67282" lon="6.64078">
        <ele>433.6</ele>
        <time>2022-08-28T15:50:47.000Z</time>
      </trkpt>
      <trkpt lat="47.67273" lon="6.641">
        <ele>434.3</ele>
        <time>2022-08-28T15:50:52.000Z</time>
      </trkpt>
      <trkpt lat="47.67269" lon="6.64157">
        <ele>437.3</ele>
        <time>2022-08-28T15:51:16.000Z</time>
      </trkpt>
      <trkpt lat="47.67263" lon="6.64163">
        <ele>436.7</ele>
        <time>2022-08-28T15:51:26.000Z</time>
      </trkpt>
      <trkpt lat="47.67257" lon="6.64192">
        <ele>437.1</ele>
        <time>2022-08-28T15:51:39.000Z</time>
      </trkpt>
      <trkpt lat="47.67256" lon="6.64198">
        <ele>437.3</ele>
        <time>2022-08-28T15:51:43.000Z</time>
      </trkpt>
      <trkpt lat="47.67261" lon="6.64203">
        <ele>438.7</ele>
        <time>2022-08-28T15:51:52.000Z</time>
      </trkpt>
      <trkpt lat="47.67255" lon="6.64212">
        <ele>438.2</ele>
        <time>2022-08-28T15:52:03.000Z</time>
      </trkpt>
      <trkpt lat="47.6725" lon="6.64232">
        <ele>438.2</ele>
        <time>2022-08-28T15:52:08.000Z</time>
      </trkpt>
      <trkpt lat="47.67238" lon="6.64304">
        <ele>434.5</ele>
        <time>2022-08-28T15:52:16.000Z</time>
      </trkpt>
      <trkpt lat="47.67233" lon="6.64386">
        <ele>432.4</ele>
        <time>2022-08-28T15:52:24.000Z</time>
      </trkpt>
      <trkpt lat="47.67229" lon="6.64572">
        <ele>438.7</ele>
        <time>2022-08-28T15:52:46.000Z</time>
      </trkpt>
      <trkpt lat="47.67233" lon="6.64708">
        <ele>443.4</ele>
        <time>2022-08-28T15:53:03.000Z</time>
      </trkpt>
      <trkpt lat="47.67239" lon="6.64741">
        <ele>446.8</ele>
        <time>2022-08-28T15:53:13.000Z</time>
      </trkpt>
      <trkpt lat="47.67232" lon="6.64754">
        <ele>444.4</ele>
        <time>2022-08-28T15:53:39.000Z</time>
      </trkpt>
      <trkpt lat="47.67239" lon="6.64782">
        <ele>448.9</ele>
        <time>2022-08-28T15:53:52.000Z</time>
      </trkpt>
      <trkpt lat="47.67241" lon="6.64817">
        <ele>451.8</ele>
        <time>2022-08-28T15:54:16.000Z</time>
      </trkpt>
      <trkpt lat="47.6724" lon="6.6483">
        <ele>452.4</ele>
        <time>2022-08-28T15:54:34.000Z</time>
      </trkpt>
      <trkpt lat="47.67224" lon="6.64846">
        <ele>452.1</ele>
        <time>2022-08-28T15:54:43.000Z</time>
      </trkpt>
      <trkpt lat="47.67216" lon="6.64841">
        <ele>450.1</ele>
        <time>2022-08-28T15:55:07.000Z</time>
      </trkpt>
      <trkpt lat="47.67217" lon="6.64835">
        <ele>449.1</ele>
        <time>2022-08-28T15:55:23.000Z</time>
      </trkpt>
      <trkpt lat="47.67137" lon="6.64896">
        <ele>459.2</ele>
        <time>2022-08-28T15:56:10.000Z</time>
      </trkpt>
      <trkpt lat="47.67104" lon="6.64911">
        <ele>461.6</ele>
        <time>2022-08-28T15:56:26.000Z</time>
      </trkpt>
      <trkpt lat="47.67078" lon="6.64915">
        <ele>461</ele>
        <time>2022-08-28T15:56:53.000Z</time>
      </trkpt>
      <trkpt lat="47.67061" lon="6.64924">
        <ele>458.3</ele>
        <time>2022-08-28T15:56:56.000Z</time>
      </trkpt>
      <trkpt lat="47.67018" lon="6.64948">
        <ele>450.4</ele>
        <time>2022-08-28T15:57:02.000Z</time>
      </trkpt>
      <trkpt lat="47.66994" lon="6.64973">
        <ele>452.5</ele>
        <time>2022-08-28T15:57:11.000Z</time>
      </trkpt>
      <trkpt lat="47.66964" lon="6.6499">
        <ele>460.3</ele>
        <time>2022-08-28T15:57:23.000Z</time>
      </trkpt>
      <trkpt lat="47.66955" lon="6.64999">
        <ele>463</ele>
        <time>2022-08-28T15:57:29.000Z</time>
      </trkpt>
      <trkpt lat="47.66939" lon="6.65004">
        <ele>466</ele>
        <time>2022-08-28T15:57:54.000Z</time>
      </trkpt>
      <trkpt lat="47.66932" lon="6.6501">
        <ele>467.2</ele>
        <time>2022-08-28T15:58:02.000Z</time>
      </trkpt>
      <trkpt lat="47.66932" lon="6.65014">
        <ele>467.6</ele>
        <time>2022-08-28T15:58:14.000Z</time>
      </trkpt>
      <trkpt lat="47.66926" lon="6.64999">
        <ele>466.8</ele>
        <time>2022-08-28T15:58:38.000Z</time>
      </trkpt>
      <trkpt lat="47.66907" lon="6.65017">
        <ele>470.3</ele>
        <time>2022-08-28T15:58:50.000Z</time>
      </trkpt>
      <trkpt lat="47.66811" lon="6.65076">
        <ele>480.2</ele>
        <time>2022-08-28T15:59:22.000Z</time>
      </trkpt>
      <trkpt lat="47.66783" lon="6.6509">
        <ele>482.5</ele>
        <time>2022-08-28T16:00:06.000Z</time>
      </trkpt>
      <trkpt lat="47.66763" lon="6.65096">
        <ele>484.7</ele>
        <time>2022-08-28T16:00:17.000Z</time>
      </trkpt>
      <trkpt lat="47.66736" lon="6.65113">
        <ele>488.1</ele>
        <time>2022-08-28T16:00:29.000Z</time>
      </trkpt>
      <trkpt lat="47.66737" lon="6.6511">
        <ele>487.8</ele>
        <time>2022-08-28T16:00:43.000Z</time>
      </trkpt>
      <trkpt lat="47.66737" lon="6.65115">
        <ele>488</ele>
        <time>2022-08-28T16:00:46.000Z</time>
      </trkpt>
      <trkpt lat="47.6674" lon="6.65116">
        <ele>487.9</ele>
        <time>2022-08-28T16:00:49.000Z</time>
      </trkpt>
      <trkpt lat="47.66731" lon="6.65114">
        <ele>488.5</ele>
        <time>2022-08-28T16:01:03.000Z</time>
      </trkpt>
      <trkpt lat="47.66694" lon="6.65138">
        <ele>493</ele>
        <time>2022-08-28T16:01:18.000Z</time>
      </trkpt>
      <trkpt lat="47.66679" lon="6.6515">
        <ele>494.9</ele>
        <time>2022-08-28T16:01:26.000Z</time>
      </trkpt>
      <trkpt lat="47.66687" lon="6.65149">
        <ele>494.1</ele>
        <time>2022-08-28T16:01:47.000Z</time>
      </trkpt>
      <trkpt lat="47.66682" lon="6.65154">
        <ele>494.6</ele>
        <time>2022-08-28T16:01:53.000Z</time>
      </trkpt>
      <trkpt lat="47.66661" lon="6.6517">
        <ele>496.5</ele>
        <time>2022-08-28T16:02:00.000Z</time>
      </trkpt>
      <trkpt lat="47.66649" lon="6.65174">
        <ele>497.5</ele>
        <time>2022-08-28T16:02:06.000Z</time>
      </trkpt>
      <trkpt lat="47.66637" lon="6.65167">
        <ele>498.1</ele>
        <time>2022-08-28T16:02:30.000Z</time>
      </trkpt>
      <trkpt lat="47.66633" lon="6.65162">
        <ele>498</ele>
        <time>2022-08-28T16:02:37.000Z</time>
      </trkpt>
      <trkpt lat="47.66634" lon="6.6516">
        <ele>497.9</ele>
        <time>2022-08-28T16:02:53.000Z</time>
      </trkpt>
      <trkpt lat="47.6662" lon="6.65174">
        <ele>499</ele>
        <time>2022-08-28T16:03:07.000Z</time>
      </trkpt>
      <trkpt lat="47.66604" lon="6.65175">
        <ele>499.1</ele>
        <time>2022-08-28T16:03:28.000Z</time>
      </trkpt>
      <trkpt lat="47.66522" lon="6.6523">
        <ele>497.9</ele>
        <time>2022-08-28T16:03:54.000Z</time>
      </trkpt>
      <trkpt lat="47.66477" lon="6.65252">
        <ele>495.4</ele>
        <time>2022-08-28T16:04:06.000Z</time>
      </trkpt>
      <trkpt lat="47.6647" lon="6.65263">
        <ele>495.3</ele>
        <time>2022-08-28T16:04:18.000Z</time>
      </trkpt>
      <trkpt lat="47.66349" lon="6.65326">
        <ele>487.1</ele>
        <time>2022-08-28T16:04:57.000Z</time>
      </trkpt>
      <trkpt lat="47.66338" lon="6.65326">
        <ele>485.7</ele>
        <time>2022-08-28T16:05:22.000Z</time>
      </trkpt>
      <trkpt lat="47.66262" lon="6.65369">
        <ele>474.2</ele>
        <time>2022-08-28T16:05:48.000Z</time>
      </trkpt>
      <trkpt lat="47.6625" lon="6.65374">
        <ele>471.9</ele>
        <time>2022-08-28T16:05:54.000Z</time>
      </trkpt>
      <trkpt lat="47.66249" lon="6.6537">
        <ele>471.5</ele>
        <time>2022-08-28T16:06:10.000Z</time>
      </trkpt>
      <trkpt lat="47.66226" lon="6.65382">
        <ele>468.8</ele>
        <time>2022-08-28T16:06:22.000Z</time>
      </trkpt>
      <trkpt lat="47.66199" lon="6.65381">
        <ele>470.6</ele>
        <time>2022-08-28T16:06:28.000Z</time>
      </trkpt>
      <trkpt lat="47.66131" lon="6.65362">
        <ele>483.2</ele>
        <time>2022-08-28T16:07:25.000Z</time>
      </trkpt>
      <trkpt lat="47.6613" lon="6.65356">
        <ele>482.9</ele>
        <time>2022-08-28T16:07:38.000Z</time>
      </trkpt>
      <trkpt lat="47.66083" lon="6.6534">
        <ele>486.5</ele>
        <time>2022-08-28T16:07:54.000Z</time>
      </trkpt>
      <trkpt lat="47.66045" lon="6.65335">
        <ele>488.9</ele>
        <time>2022-08-28T16:08:16.000Z</time>
      </trkpt>
      <trkpt lat="47.65975" lon="6.65306">
        <ele>489.9</ele>
        <time>2022-08-28T16:08:36.000Z</time>
      </trkpt>
      <trkpt lat="47.65913" lon="6.65288">
        <ele>488.1</ele>
        <time>2022-08-28T16:09:00.000Z</time>
      </trkpt>
      <trkpt lat="47.6591" lon="6.65291">
        <ele>488</ele>
        <time>2022-08-28T16:09:11.000Z</time>
      </trkpt>
      <trkpt lat="47.65773" lon="6.65238">
        <ele>475.3</ele>
        <time>2022-08-28T16:09:32.000Z</time>
      </trkpt>
      <trkpt lat="47.65719" lon="6.65223">
        <ele>462.5</ele>
        <time>2022-08-28T16:09:42.000Z</time>
      </trkpt>
      <trkpt lat="47.65701" lon="6.65214">
        <ele>459.4</ele>
        <time>2022-08-28T16:09:55.000Z</time>
      </trkpt>
      <trkpt lat="47.65696" lon="6.65192">
        <ele>458.6</ele>
        <time>2022-08-28T16:10:40.000Z</time>
      </trkpt>
      <trkpt lat="47.65642" lon="6.65071">
        <ele>459</ele>
        <time>2022-08-28T16:10:57.000Z</time>
      </trkpt>
      <trkpt lat="47.65617" lon="6.65009">
        <ele>460.2</ele>
        <time>2022-08-28T16:11:25.000Z</time>
      </trkpt>
      <trkpt lat="47.65561" lon="6.64939">
        <ele>460.1</ele>
        <time>2022-08-28T16:12:04.000Z</time>
      </trkpt>
      <trkpt lat="47.65534" lon="6.64897">
        <ele>461.8</ele>
        <time>2022-08-28T16:12:11.000Z</time>
      </trkpt>
      <trkpt lat="47.65509" lon="6.64809">
        <ele>462.7</ele>
        <time>2022-08-28T16:12:21.000Z</time>
      </trkpt>
      <trkpt lat="47.65501" lon="6.64762">
        <ele>463.1</ele>
        <time>2022-08-28T16:12:26.000Z</time>
      </trkpt>
      <trkpt lat="47.655" lon="6.64722">
        <ele>462.9</ele>
        <time>2022-08-28T16:12:30.000Z</time>
      </trkpt>
      <trkpt lat="47.65504" lon="6.6468">
        <ele>461.7</ele>
        <time>2022-08-28T16:12:34.000Z</time>
      </trkpt>
      <trkpt lat="47.65511" lon="6.64633">
        <ele>459.6</ele>
        <time>2022-08-28T16:12:45.000Z</time>
      </trkpt>
      <trkpt lat="47.65529" lon="6.64556">
        <ele>456.2</ele>
        <time>2022-08-28T16:13:00.000Z</time>
      </trkpt>
      <trkpt lat="47.65544" lon="6.64502">
        <ele>453.3</ele>
        <time>2022-08-28T16:13:05.000Z</time>
      </trkpt>
      <trkpt lat="47.65563" lon="6.64459">
        <ele>451.4</ele>
        <time>2022-08-28T16:13:35.000Z</time>
      </trkpt>
      <trkpt lat="47.65581" lon="6.64404">
        <ele>448.4</ele>
        <time>2022-08-28T16:13:41.000Z</time>
      </trkpt>
      <trkpt lat="47.65604" lon="6.64295">
        <ele>444.2</ele>
        <time>2022-08-28T16:13:53.000Z</time>
      </trkpt>
      <trkpt lat="47.65613" lon="6.64288">
        <ele>445.2</ele>
        <time>2022-08-28T16:14:07.000Z</time>
      </trkpt>
      <trkpt lat="47.65615" lon="6.64273">
        <ele>445.4</ele>
        <time>2022-08-28T16:14:47.000Z</time>
      </trkpt>
      <trkpt lat="47.65601" lon="6.64277">
        <ele>443.9</ele>
        <time>2022-08-28T16:16:09.000Z</time>
      </trkpt>
      <trkpt lat="47.6561" lon="6.6428">
        <ele>444.9</ele>
        <time>2022-08-28T16:16:28.000Z</time>
      </trkpt>
      <trkpt lat="47.65611" lon="6.64288">
        <ele>445</ele>
        <time>2022-08-28T16:16:40.000Z</time>
      </trkpt>
      <trkpt lat="47.6561" lon="6.64285">
        <ele>444.8</ele>
        <time>2022-08-28T16:17:00.000Z</time>
      </trkpt>
      <trkpt lat="47.65617" lon="6.64284">
        <ele>445.7</ele>
        <time>2022-08-28T16:18:12.000Z</time>
      </trkpt>
      <trkpt lat="47.65619" lon="6.64274">
        <ele>445.8</ele>
        <time>2022-08-28T16:18:30.000Z</time>
      </trkpt>
      <trkpt lat="47.6561" lon="6.64272">
        <ele>444.9</ele>
        <time>2022-08-28T16:18:53.000Z</time>
      </trkpt>
      <trkpt lat="47.65617" lon="6.6427">
        <ele>445.5</ele>
        <time>2022-08-28T16:19:13.000Z</time>
      </trkpt>
      <trkpt lat="47.65613" lon="6.64277">
        <ele>445.2</ele>
        <time>2022-08-28T16:19:51.000Z</time>
      </trkpt>
      <trkpt lat="47.65612" lon="6.64273">
        <ele>445</ele>
        <time>2022-08-28T16:20:27.000Z</time>
      </trkpt>
      <trkpt lat="47.65608" lon="6.64281">
        <ele>444.6</ele>
        <time>2022-08-28T16:20:39.000Z</time>
      </trkpt>
      <trkpt lat="47.65617" lon="6.64271">
        <ele>445.5</ele>
        <time>2022-08-28T16:20:55.000Z</time>
      </trkpt>
      <trkpt lat="47.65614" lon="6.64268">
        <ele>445.3</ele>
        <time>2022-08-28T16:21:11.000Z</time>
      </trkpt>
      <trkpt lat="47.6562" lon="6.64265">
        <ele>445.8</ele>
        <time>2022-08-28T16:21:26.000Z</time>
      </trkpt>
      <trkpt lat="47.65616" lon="6.64277">
        <ele>445.5</ele>
        <time>2022-08-28T16:22:03.000Z</time>
      </trkpt>
      <trkpt lat="47.65615" lon="6.64274">
        <ele>445.4</ele>
        <time>2022-08-28T16:22:17.000Z</time>
      </trkpt>
      <trkpt lat="47.65613" lon="6.64275">
        <ele>445.1</ele>
        <time>2022-08-28T16:22:24.000Z</time>
      </trkpt>
      <trkpt lat="47.65593" lon="6.64297">
        <ele>443.1</ele>
        <time>2022-08-28T16:22:33.000Z</time>
      </trkpt>
      <trkpt lat="47.65572" lon="6.64314">
        <ele>441.5</ele>
        <time>2022-08-28T16:22:37.000Z</time>
      </trkpt>
      <trkpt lat="47.65427" lon="6.64391">
        <ele>434.7</ele>
        <time>2022-08-28T16:22:57.000Z</time>
      </trkpt>
      <trkpt lat="47.65392" lon="6.64402">
        <ele>433.1</ele>
        <time>2022-08-28T16:23:02.000Z</time>
      </trkpt>
      <trkpt lat="47.65366" lon="6.64403">
        <ele>431.8</ele>
        <time>2022-08-28T16:23:06.000Z</time>
      </trkpt>
      <trkpt lat="47.65272" lon="6.64389">
        <ele>433.8</ele>
        <time>2022-08-28T16:23:23.000Z</time>
      </trkpt>
      <trkpt lat="47.65248" lon="6.64396">
        <ele>433.2</ele>
        <time>2022-08-28T16:23:27.000Z</time>
      </trkpt>
      <trkpt lat="47.65231" lon="6.64408">
        <ele>431.1</ele>
        <time>2022-08-28T16:23:30.000Z</time>
      </trkpt>
      <trkpt lat="47.65215" lon="6.64429">
        <ele>429</ele>
        <time>2022-08-28T16:23:33.000Z</time>
      </trkpt>
      <trkpt lat="47.652" lon="6.64458">
        <ele>426.2</ele>
        <time>2022-08-28T16:23:37.000Z</time>
      </trkpt>
      <trkpt lat="47.65188" lon="6.64493">
        <ele>423.3</ele>
        <time>2022-08-28T16:23:40.000Z</time>
      </trkpt>
      <trkpt lat="47.65179" lon="6.64534">
        <ele>418.4</ele>
        <time>2022-08-28T16:23:43.000Z</time>
      </trkpt>
      <trkpt lat="47.65169" lon="6.64602">
        <ele>410.1</ele>
        <time>2022-08-28T16:23:48.000Z</time>
      </trkpt>
      <trkpt lat="47.6516" lon="6.6477">
        <ele>399.6</ele>
        <time>2022-08-28T16:24:21.000Z</time>
      </trkpt>
      <trkpt lat="47.6515" lon="6.64764">
        <ele>397.1</ele>
        <time>2022-08-28T16:24:37.000Z</time>
      </trkpt>
      <trkpt lat="47.65144" lon="6.6477">
        <ele>395.2</ele>
        <time>2022-08-28T16:25:06.000Z</time>
      </trkpt>
      <trkpt lat="47.65136" lon="6.64752">
        <ele>393.5</ele>
        <time>2022-08-28T16:25:12.000Z</time>
      </trkpt>
      <trkpt lat="47.65112" lon="6.64636">
        <ele>389.4</ele>
        <time>2022-08-28T16:25:27.000Z</time>
      </trkpt>
      <trkpt lat="47.65104" lon="6.64554">
        <ele>389.6</ele>
        <time>2022-08-28T16:25:36.000Z</time>
      </trkpt>
      <trkpt lat="47.65111" lon="6.64395">
        <ele>389.3</ele>
        <time>2022-08-28T16:25:54.000Z</time>
      </trkpt>
      <trkpt lat="47.65125" lon="6.64286">
        <ele>388.6</ele>
        <time>2022-08-28T16:26:07.000Z</time>
      </trkpt>
      <trkpt lat="47.65148" lon="6.64167">
        <ele>391.7</ele>
        <time>2022-08-28T16:26:21.000Z</time>
      </trkpt>
      <trkpt lat="47.65163" lon="6.64123">
        <ele>397</ele>
        <time>2022-08-28T16:26:27.000Z</time>
      </trkpt>
      <trkpt lat="47.65174" lon="6.64108">
        <ele>398.7</ele>
        <time>2022-08-28T16:26:30.000Z</time>
      </trkpt>
      <trkpt lat="47.65188" lon="6.64101">
        <ele>399.2</ele>
        <time>2022-08-28T16:26:33.000Z</time>
      </trkpt>
      <trkpt lat="47.65234" lon="6.64108">
        <ele>397.7</ele>
        <time>2022-08-28T16:26:42.000Z</time>
      </trkpt>
      <trkpt lat="47.65239" lon="6.64104">
        <ele>398.1</ele>
        <time>2022-08-28T16:26:44.000Z</time>
      </trkpt>
      <trkpt lat="47.65243" lon="6.64088">
        <ele>398.6</ele>
        <time>2022-08-28T16:26:47.000Z</time>
      </trkpt>
      <trkpt lat="47.65236" lon="6.64011">
        <ele>399.2</ele>
        <time>2022-08-28T16:26:56.000Z</time>
      </trkpt>
      <trkpt lat="47.65213" lon="6.63918">
        <ele>401.1</ele>
        <time>2022-08-28T16:27:07.000Z</time>
      </trkpt>
      <trkpt lat="47.65205" lon="6.63873">
        <ele>401.8</ele>
        <time>2022-08-28T16:27:12.000Z</time>
      </trkpt>
      <trkpt lat="47.65201" lon="6.63726">
        <ele>403.4</ele>
        <time>2022-08-28T16:27:28.000Z</time>
      </trkpt>
      <trkpt lat="47.65203" lon="6.63689">
        <ele>403.5</ele>
        <time>2022-08-28T16:27:32.000Z</time>
      </trkpt>
      <trkpt lat="47.65213" lon="6.63662">
        <ele>404.3</ele>
        <time>2022-08-28T16:27:36.000Z</time>
      </trkpt>
      <trkpt lat="47.65229" lon="6.63645">
        <ele>405.2</ele>
        <time>2022-08-28T16:27:40.000Z</time>
      </trkpt>
      <trkpt lat="47.65297" lon="6.63615">
        <ele>405.4</ele>
        <time>2022-08-28T16:27:53.000Z</time>
      </trkpt>
      <trkpt lat="47.65334" lon="6.63589">
        <ele>407.2</ele>
        <time>2022-08-28T16:28:00.000Z</time>
      </trkpt>
      <trkpt lat="47.65367" lon="6.63549">
        <ele>411.7</ele>
        <time>2022-08-28T16:28:08.000Z</time>
      </trkpt>
      <trkpt lat="47.65383" lon="6.63516">
        <ele>415</ele>
        <time>2022-08-28T16:28:14.000Z</time>
      </trkpt>
      <trkpt lat="47.65383" lon="6.63506">
        <ele>416</ele>
        <time>2022-08-28T16:28:16.000Z</time>
      </trkpt>
      <trkpt lat="47.65379" lon="6.63492">
        <ele>416.7</ele>
        <time>2022-08-28T16:28:19.000Z</time>
      </trkpt>
      <trkpt lat="47.6534" lon="6.63434">
        <ele>415.4</ele>
        <time>2022-08-28T16:28:29.000Z</time>
      </trkpt>
      <trkpt lat="47.653" lon="6.63366">
        <ele>414.1</ele>
        <time>2022-08-28T16:28:38.000Z</time>
      </trkpt>
      <trkpt lat="47.65282" lon="6.63351">
        <ele>413.6</ele>
        <time>2022-08-28T16:28:42.000Z</time>
      </trkpt>
      <trkpt lat="47.65262" lon="6.63356">
        <ele>413.3</ele>
        <time>2022-08-28T16:28:46.000Z</time>
      </trkpt>
      <trkpt lat="47.65216" lon="6.634">
        <ele>413.4</ele>
        <time>2022-08-28T16:28:55.000Z</time>
      </trkpt>
      <trkpt lat="47.65184" lon="6.63439">
        <ele>412.8</ele>
        <time>2022-08-28T16:29:03.000Z</time>
      </trkpt>
      <trkpt lat="47.65154" lon="6.63456">
        <ele>411</ele>
        <time>2022-08-28T16:29:09.000Z</time>
      </trkpt>
      <trkpt lat="47.65107" lon="6.63457">
        <ele>411.7</ele>
        <time>2022-08-28T16:29:17.000Z</time>
      </trkpt>
      <trkpt lat="47.65077" lon="6.63445">
        <ele>411.7</ele>
        <time>2022-08-28T16:29:22.000Z</time>
      </trkpt>
      <trkpt lat="47.65053" lon="6.6343">
        <ele>411.3</ele>
        <time>2022-08-28T16:29:26.000Z</time>
      </trkpt>
      <trkpt lat="47.64939" lon="6.63323">
        <ele>405.9</ele>
        <time>2022-08-28T16:29:46.000Z</time>
      </trkpt>
      <trkpt lat="47.64883" lon="6.63249">
        <ele>403.4</ele>
        <time>2022-08-28T16:29:58.000Z</time>
      </trkpt>
      <trkpt lat="47.64854" lon="6.63189">
        <ele>402.2</ele>
        <time>2022-08-28T16:30:06.000Z</time>
      </trkpt>
      <trkpt lat="47.64846" lon="6.63165">
        <ele>401.4</ele>
        <time>2022-08-28T16:30:09.000Z</time>
      </trkpt>
      <trkpt lat="47.64842" lon="6.6314">
        <ele>401.9</ele>
        <time>2022-08-28T16:30:12.000Z</time>
      </trkpt>
      <trkpt lat="47.64845" lon="6.63115">
        <ele>402.7</ele>
        <time>2022-08-28T16:30:15.000Z</time>
      </trkpt>
      <trkpt lat="47.64852" lon="6.63094">
        <ele>403.8</ele>
        <time>2022-08-28T16:30:18.000Z</time>
      </trkpt>
      <trkpt lat="47.64882" lon="6.63059">
        <ele>406.4</ele>
        <time>2022-08-28T16:30:26.000Z</time>
      </trkpt>
      <trkpt lat="47.64889" lon="6.63046">
        <ele>407</ele>
        <time>2022-08-28T16:30:30.000Z</time>
      </trkpt>
      <trkpt lat="47.64888" lon="6.63032">
        <ele>407</ele>
        <time>2022-08-28T16:30:34.000Z</time>
      </trkpt>
      <trkpt lat="47.64881" lon="6.63006">
        <ele>405.9</ele>
        <time>2022-08-28T16:30:51.000Z</time>
      </trkpt>
      <trkpt lat="47.6483" lon="6.62996">
        <ele>402.9</ele>
        <time>2022-08-28T16:31:24.000Z</time>
      </trkpt>
      <trkpt lat="47.64812" lon="6.62986">
        <ele>402.3</ele>
        <time>2022-08-28T16:31:28.000Z</time>
      </trkpt>
      <trkpt lat="47.64801" lon="6.62973">
        <ele>402.9</ele>
        <time>2022-08-28T16:31:35.000Z</time>
      </trkpt>
      <trkpt lat="47.6478" lon="6.63032">
        <ele>395.8</ele>
        <time>2022-08-28T16:31:48.000Z</time>
      </trkpt>
      <trkpt lat="47.64753" lon="6.63083">
        <ele>390.4</ele>
        <time>2022-08-28T16:31:55.000Z</time>
      </trkpt>
      <trkpt lat="47.64704" lon="6.63146">
        <ele>378.2</ele>
        <time>2022-08-28T16:32:13.000Z</time>
      </trkpt>
      <trkpt lat="47.64679" lon="6.63164">
        <ele>371.7</ele>
        <time>2022-08-28T16:32:18.000Z</time>
      </trkpt>
      <trkpt lat="47.6466" lon="6.6317">
        <ele>370.8</ele>
        <time>2022-08-28T16:32:21.000Z</time>
      </trkpt>
      <trkpt lat="47.64633" lon="6.63169">
        <ele>371</ele>
        <time>2022-08-28T16:32:25.000Z</time>
      </trkpt>
      <trkpt lat="47.64592" lon="6.63154">
        <ele>363.9</ele>
        <time>2022-08-28T16:32:33.000Z</time>
      </trkpt>
      <trkpt lat="47.64553" lon="6.63152">
        <ele>352.3</ele>
        <time>2022-08-28T16:32:41.000Z</time>
      </trkpt>
      <trkpt lat="47.6453" lon="6.63146">
        <ele>349.1</ele>
        <time>2022-08-28T16:32:45.000Z</time>
      </trkpt>
      <trkpt lat="47.64476" lon="6.63123">
        <ele>346.8</ele>
        <time>2022-08-28T16:32:55.000Z</time>
      </trkpt>
      <trkpt lat="47.64439" lon="6.63081">
        <ele>345.1</ele>
        <time>2022-08-28T16:33:02.000Z</time>
      </trkpt>
      <trkpt lat="47.64363" lon="6.62966">
        <ele>338.5</ele>
        <time>2022-08-28T16:33:15.000Z</time>
      </trkpt>
      <trkpt lat="47.64293" lon="6.62848">
        <ele>336.7</ele>
        <time>2022-08-28T16:33:28.000Z</time>
      </trkpt>
      <trkpt lat="47.64263" lon="6.62809">
        <ele>336.4</ele>
        <time>2022-08-28T16:33:34.000Z</time>
      </trkpt>
      <trkpt lat="47.64207" lon="6.62759">
        <ele>334.3</ele>
        <time>2022-08-28T16:33:44.000Z</time>
      </trkpt>
      <trkpt lat="47.64119" lon="6.62707">
        <ele>331.7</ele>
        <time>2022-08-28T16:33:58.000Z</time>
      </trkpt>
      <trkpt lat="47.6407" lon="6.62667">
        <ele>332</ele>
        <time>2022-08-28T16:34:09.000Z</time>
      </trkpt>
      <trkpt lat="47.64024" lon="6.62636">
        <ele>336.6</ele>
        <time>2022-08-28T16:34:19.000Z</time>
      </trkpt>
      <trkpt lat="47.64007" lon="6.6262">
        <ele>335.7</ele>
        <time>2022-08-28T16:34:23.000Z</time>
      </trkpt>
      <trkpt lat="47.63986" lon="6.62583">
        <ele>333.6</ele>
        <time>2022-08-28T16:34:29.000Z</time>
      </trkpt>
      <trkpt lat="47.63945" lon="6.62467">
        <ele>330.2</ele>
        <time>2022-08-28T16:34:44.000Z</time>
      </trkpt>
      <trkpt lat="47.63932" lon="6.62445">
        <ele>331.4</ele>
        <time>2022-08-28T16:34:47.000Z</time>
      </trkpt>
      <trkpt lat="47.63917" lon="6.62426">
        <ele>328.3</ele>
        <time>2022-08-28T16:34:50.000Z</time>
      </trkpt>
      <trkpt lat="47.63849" lon="6.62369">
        <ele>327.9</ele>
        <time>2022-08-28T16:35:01.000Z</time>
      </trkpt>
      <trkpt lat="47.6377" lon="6.62326">
        <ele>323</ele>
        <time>2022-08-28T16:35:14.000Z</time>
      </trkpt>
      <trkpt lat="47.63746" lon="6.62299">
        <ele>321.8</ele>
        <time>2022-08-28T16:35:18.000Z</time>
      </trkpt>
      <trkpt lat="47.63697" lon="6.62223">
        <ele>323.3</ele>
        <time>2022-08-28T16:35:31.000Z</time>
      </trkpt>
      <trkpt lat="47.6369" lon="6.62225">
        <ele>321.8</ele>
        <time>2022-08-28T16:35:34.000Z</time>
      </trkpt>
      <trkpt lat="47.63664" lon="6.62247">
        <ele>320.7</ele>
        <time>2022-08-28T16:35:41.000Z</time>
      </trkpt>
      <trkpt lat="47.63649" lon="6.62247">
        <ele>320.8</ele>
        <time>2022-08-28T16:35:44.000Z</time>
      </trkpt>
      <trkpt lat="47.63638" lon="6.6224">
        <ele>320.6</ele>
        <time>2022-08-28T16:35:46.000Z</time>
      </trkpt>
      <trkpt lat="47.63613" lon="6.62201">
        <ele>321.5</ele>
        <time>2022-08-28T16:35:52.000Z</time>
      </trkpt>
      <trkpt lat="47.63603" lon="6.62168">
        <ele>322.6</ele>
        <time>2022-08-28T16:35:56.000Z</time>
      </trkpt>
      <trkpt lat="47.63587" lon="6.6214">
        <ele>323.9</ele>
        <time>2022-08-28T16:36:00.000Z</time>
      </trkpt>
      <trkpt lat="47.63501" lon="6.62088">
        <ele>335.1</ele>
        <time>2022-08-28T16:36:20.000Z</time>
      </trkpt>
      <trkpt lat="47.63483" lon="6.62073">
        <ele>337.2</ele>
        <time>2022-08-28T16:36:24.000Z</time>
      </trkpt>
      <trkpt lat="47.63463" lon="6.62046">
        <ele>340.3</ele>
        <time>2022-08-28T16:36:29.000Z</time>
      </trkpt>
      <trkpt lat="47.6344" lon="6.61986">
        <ele>342</ele>
        <time>2022-08-28T16:36:39.000Z</time>
      </trkpt>
      <trkpt lat="47.63432" lon="6.61977">
        <ele>343.4</ele>
        <time>2022-08-28T16:36:44.000Z</time>
      </trkpt>
      <trkpt lat="47.63428" lon="6.61984">
        <ele>344.5</ele>
        <time>2022-08-28T16:36:47.000Z</time>
      </trkpt>
      <trkpt lat="47.63427" lon="6.61997">
        <ele>345.2</ele>
        <time>2022-08-28T16:36:50.000Z</time>
      </trkpt>
      <trkpt lat="47.63436" lon="6.62055">
        <ele>346.8</ele>
        <time>2022-08-28T16:37:00.000Z</time>
      </trkpt>
      <trkpt lat="47.63437" lon="6.62099">
        <ele>347.7</ele>
        <time>2022-08-28T16:37:18.000Z</time>
      </trkpt>
      <trkpt lat="47.63421" lon="6.62144">
        <ele>349.5</ele>
        <time>2022-08-28T16:37:46.000Z</time>
      </trkpt>
      <trkpt lat="47.63432" lon="6.6217">
        <ele>350.4</ele>
        <time>2022-08-28T16:38:12.000Z</time>
      </trkpt>
      <trkpt lat="47.63437" lon="6.62191">
        <ele>352.6</ele>
        <time>2022-08-28T16:38:17.000Z</time>
      </trkpt>
      <trkpt lat="47.63439" lon="6.62211">
        <ele>354.8</ele>
        <time>2022-08-28T16:38:21.000Z</time>
      </trkpt>
      <trkpt lat="47.63437" lon="6.62253">
        <ele>358.7</ele>
        <time>2022-08-28T16:38:45.000Z</time>
      </trkpt>
      <trkpt lat="47.63413" lon="6.62342">
        <ele>367.7</ele>
        <time>2022-08-28T16:39:09.000Z</time>
      </trkpt>
      <trkpt lat="47.63366" lon="6.62447">
        <ele>379.9</ele>
        <time>2022-08-28T16:39:53.000Z</time>
      </trkpt>
      <trkpt lat="47.63357" lon="6.62474">
        <ele>382.8</ele>
        <time>2022-08-28T16:40:00.000Z</time>
      </trkpt>
      <trkpt lat="47.63347" lon="6.6252">
        <ele>385</ele>
        <time>2022-08-28T16:40:21.000Z</time>
      </trkpt>
      <trkpt lat="47.63321" lon="6.62613">
        <ele>389.1</ele>
        <time>2022-08-28T16:40:36.000Z</time>
      </trkpt>
      <trkpt lat="47.63306" lon="6.62704">
        <ele>390.1</ele>
        <time>2022-08-28T16:40:52.000Z</time>
      </trkpt>
      <trkpt lat="47.633" lon="6.62779">
        <ele>387.9</ele>
        <time>2022-08-28T16:41:38.000Z</time>
      </trkpt>
      <trkpt lat="47.63283" lon="6.62841">
        <ele>387.5</ele>
        <time>2022-08-28T16:41:46.000Z</time>
      </trkpt>
      <trkpt lat="47.63257" lon="6.62896">
        <ele>387.1</ele>
        <time>2022-08-28T16:41:54.000Z</time>
      </trkpt>
      <trkpt lat="47.63238" lon="6.62919">
        <ele>386.6</ele>
        <time>2022-08-28T16:41:58.000Z</time>
      </trkpt>
      <trkpt lat="47.63223" lon="6.6293">
        <ele>386.5</ele>
        <time>2022-08-28T16:42:02.000Z</time>
      </trkpt>
      <trkpt lat="47.63173" lon="6.62939">
        <ele>383.7</ele>
        <time>2022-08-28T16:42:29.000Z</time>
      </trkpt>
      <trkpt lat="47.63116" lon="6.62937">
        <ele>384.9</ele>
        <time>2022-08-28T16:42:38.000Z</time>
      </trkpt>
      <trkpt lat="47.63101" lon="6.62941">
        <ele>385.5</ele>
        <time>2022-08-28T16:42:41.000Z</time>
      </trkpt>
      <trkpt lat="47.63086" lon="6.62952">
        <ele>386.2</ele>
        <time>2022-08-28T16:42:45.000Z</time>
      </trkpt>
      <trkpt lat="47.63063" lon="6.63011">
        <ele>388.7</ele>
        <time>2022-08-28T16:43:21.000Z</time>
      </trkpt>
      <trkpt lat="47.63059" lon="6.63078">
        <ele>387.3</ele>
        <time>2022-08-28T16:43:44.000Z</time>
      </trkpt>
      <trkpt lat="47.63048" lon="6.63136">
        <ele>387.2</ele>
        <time>2022-08-28T16:43:58.000Z</time>
      </trkpt>
      <trkpt lat="47.63038" lon="6.63143">
        <ele>388.9</ele>
        <time>2022-08-28T16:44:21.000Z</time>
      </trkpt>
      <trkpt lat="47.63031" lon="6.63142">
        <ele>390.7</ele>
        <time>2022-08-28T16:44:30.000Z</time>
      </trkpt>
      <trkpt lat="47.63033" lon="6.63138">
        <ele>390.7</ele>
        <time>2022-08-28T16:44:39.000Z</time>
      </trkpt>
      <trkpt lat="47.62957" lon="6.63216">
        <ele>399.7</ele>
        <time>2022-08-28T16:45:21.000Z</time>
      </trkpt>
      <trkpt lat="47.62891" lon="6.63271">
        <ele>407.6</ele>
        <time>2022-08-28T16:46:04.000Z</time>
      </trkpt>
      <trkpt lat="47.6285" lon="6.63349">
        <ele>411.4</ele>
        <time>2022-08-28T16:46:23.000Z</time>
      </trkpt>
      <trkpt lat="47.62821" lon="6.63452">
        <ele>413.7</ele>
        <time>2022-08-28T16:46:45.000Z</time>
      </trkpt>
      <trkpt lat="47.62796" lon="6.63522">
        <ele>417.3</ele>
        <time>2022-08-28T16:46:56.000Z</time>
      </trkpt>
      <trkpt lat="47.62785" lon="6.63569">
        <ele>416.6</ele>
        <time>2022-08-28T16:47:08.000Z</time>
      </trkpt>
      <trkpt lat="47.62774" lon="6.63603">
        <ele>417.5</ele>
        <time>2022-08-28T16:47:33.000Z</time>
      </trkpt>
      <trkpt lat="47.62756" lon="6.63655">
        <ele>419.3</ele>
        <time>2022-08-28T16:48:06.000Z</time>
      </trkpt>
      <trkpt lat="47.62727" lon="6.63724">
        <ele>420.9</ele>
        <time>2022-08-28T16:48:53.000Z</time>
      </trkpt>
      <trkpt lat="47.62718" lon="6.63792">
        <ele>414.7</ele>
        <time>2022-08-28T16:49:19.000Z</time>
      </trkpt>
      <trkpt lat="47.62715" lon="6.6384">
        <ele>409.5</ele>
        <time>2022-08-28T16:49:51.000Z</time>
      </trkpt>
      <trkpt lat="47.62717" lon="6.63879">
        <ele>404.3</ele>
        <time>2022-08-28T16:49:57.000Z</time>
      </trkpt>
      <trkpt lat="47.62731" lon="6.64038">
        <ele>387.5</ele>
        <time>2022-08-28T16:50:23.000Z</time>
      </trkpt>
      <trkpt lat="47.62729" lon="6.64041">
        <ele>388.3</ele>
        <time>2022-08-28T16:50:38.000Z</time>
      </trkpt>
      <trkpt lat="47.6273" lon="6.64061">
        <ele>387.1</ele>
        <time>2022-08-28T16:50:46.000Z</time>
      </trkpt>
      <trkpt lat="47.62743" lon="6.64179">
        <ele>379.4</ele>
        <time>2022-08-28T16:51:20.000Z</time>
      </trkpt>
      <trkpt lat="47.62739" lon="6.6427">
        <ele>377.1</ele>
        <time>2022-08-28T16:51:34.000Z</time>
      </trkpt>
      <trkpt lat="47.62715" lon="6.64313">
        <ele>374.3</ele>
        <time>2022-08-28T16:52:18.000Z</time>
      </trkpt>
      <trkpt lat="47.62716" lon="6.64316">
        <ele>373.9</ele>
        <time>2022-08-28T16:52:32.000Z</time>
      </trkpt>
      <trkpt lat="47.62704" lon="6.64312">
        <ele>372.8</ele>
        <time>2022-08-28T16:52:40.000Z</time>
      </trkpt>
      <trkpt lat="47.6269" lon="6.64315">
        <ele>371.8</ele>
        <time>2022-08-28T16:52:44.000Z</time>
      </trkpt>
      <trkpt lat="47.62682" lon="6.64321">
        <ele>372.3</ele>
        <time>2022-08-28T16:52:46.000Z</time>
      </trkpt>
      <trkpt lat="47.62673" lon="6.64335">
        <ele>370.6</ele>
        <time>2022-08-28T16:52:49.000Z</time>
      </trkpt>
      <trkpt lat="47.62665" lon="6.64365">
        <ele>368.5</ele>
        <time>2022-08-28T16:52:53.000Z</time>
      </trkpt>
      <trkpt lat="47.62647" lon="6.64481">
        <ele>364.5</ele>
        <time>2022-08-28T16:53:04.000Z</time>
      </trkpt>
      <trkpt lat="47.62636" lon="6.6452">
        <ele>360.7</ele>
        <time>2022-08-28T16:53:11.000Z</time>
      </trkpt>
      <trkpt lat="47.62588" lon="6.6457">
        <ele>357.3</ele>
        <time>2022-08-28T16:53:54.000Z</time>
      </trkpt>
      <trkpt lat="47.62481" lon="6.64646">
        <ele>354.7</ele>
        <time>2022-08-28T16:55:38.000Z</time>
      </trkpt>
      <trkpt lat="47.62474" lon="6.64662">
        <ele>354.9</ele>
        <time>2022-08-28T16:55:42.000Z</time>
      </trkpt>
      <trkpt lat="47.62472" lon="6.6469">
        <ele>355</ele>
        <time>2022-08-28T16:55:46.000Z</time>
      </trkpt>
      <trkpt lat="47.6249" lon="6.64749">
        <ele>355.7</ele>
        <time>2022-08-28T16:55:53.000Z</time>
      </trkpt>
      <trkpt lat="47.62532" lon="6.64833">
        <ele>358.4</ele>
        <time>2022-08-28T16:56:04.000Z</time>
      </trkpt>
      <trkpt lat="47.62551" lon="6.64888">
        <ele>359.8</ele>
        <time>2022-08-28T16:56:11.000Z</time>
      </trkpt>
      <trkpt lat="47.62566" lon="6.64911">
        <ele>360</ele>
        <time>2022-08-28T16:56:15.000Z</time>
      </trkpt>
      <trkpt lat="47.6258" lon="6.64921">
        <ele>360.7</ele>
        <time>2022-08-28T16:56:18.000Z</time>
      </trkpt>
      <trkpt lat="47.62611" lon="6.64928">
        <ele>362.6</ele>
        <time>2022-08-28T16:56:30.000Z</time>
      </trkpt>
      <trkpt lat="47.62608" lon="6.6493">
        <ele>362.9</ele>
        <time>2022-08-28T16:56:55.000Z</time>
      </trkpt>
      <trkpt lat="47.62614" lon="6.64923">
        <ele>361.6</ele>
        <time>2022-08-28T16:57:13.000Z</time>
      </trkpt>
      <trkpt lat="47.6267" lon="6.64885">
        <ele>366.4</ele>
        <time>2022-08-28T16:57:27.000Z</time>
      </trkpt>
      <trkpt lat="47.62684" lon="6.64881">
        <ele>367.1</ele>
        <time>2022-08-28T16:57:31.000Z</time>
      </trkpt>
      <trkpt lat="47.62689" lon="6.64888">
        <ele>367.6</ele>
        <time>2022-08-28T16:57:35.000Z</time>
      </trkpt>
      <trkpt lat="47.6269" lon="6.64904">
        <ele>369.4</ele>
        <time>2022-08-28T16:57:42.000Z</time>
      </trkpt>
      <trkpt lat="47.62694" lon="6.64906">
        <ele>369.8</ele>
        <time>2022-08-28T16:57:54.000Z</time>
      </trkpt>
      <trkpt lat="47.62691" lon="6.64932">
        <ele>371.9</ele>
        <time>2022-08-28T16:58:16.000Z</time>
      </trkpt>
      <trkpt lat="47.62696" lon="6.65009">
        <ele>379</ele>
        <time>2022-08-28T16:59:03.000Z</time>
      </trkpt>
      <trkpt lat="47.62714" lon="6.65071">
        <ele>383.1</ele>
        <time>2022-08-28T16:59:25.000Z</time>
      </trkpt>
      <trkpt lat="47.62714" lon="6.65097">
        <ele>383.6</ele>
        <time>2022-08-28T16:59:37.000Z</time>
      </trkpt>
      <trkpt lat="47.6273" lon="6.65155">
        <ele>386.7</ele>
        <time>2022-08-28T16:59:47.000Z</time>
      </trkpt>
      <trkpt lat="47.62739" lon="6.65209">
        <ele>390.5</ele>
        <time>2022-08-28T17:00:08.000Z</time>
      </trkpt>
      <trkpt lat="47.62738" lon="6.65326">
        <ele>402</ele>
        <time>2022-08-28T17:00:43.000Z</time>
      </trkpt>
      <trkpt lat="47.62736" lon="6.65323">
        <ele>402.1</ele>
        <time>2022-08-28T17:00:53.000Z</time>
      </trkpt>
      <trkpt lat="47.6274" lon="6.6533">
        <ele>402.2</ele>
        <time>2022-08-28T17:01:22.000Z</time>
      </trkpt>
      <trkpt lat="47.62749" lon="6.65326">
        <ele>400.6</ele>
        <time>2022-08-28T17:01:43.000Z</time>
      </trkpt>
      <trkpt lat="47.62744" lon="6.65327">
        <ele>401.3</ele>
        <time>2022-08-28T17:01:46.000Z</time>
      </trkpt>
      <trkpt lat="47.62743" lon="6.65344">
        <ele>403.1</ele>
        <time>2022-08-28T17:01:52.000Z</time>
      </trkpt>
      <trkpt lat="47.62753" lon="6.654">
        <ele>407.1</ele>
        <time>2022-08-28T17:02:02.000Z</time>
      </trkpt>
      <trkpt lat="47.62789" lon="6.65476">
        <ele>404.6</ele>
        <time>2022-08-28T17:02:25.000Z</time>
      </trkpt>
      <trkpt lat="47.62793" lon="6.65472">
        <ele>402.6</ele>
        <time>2022-08-28T17:02:36.000Z</time>
      </trkpt>
      <trkpt lat="47.62796" lon="6.65477">
        <ele>402</ele>
        <time>2022-08-28T17:02:40.000Z</time>
      </trkpt>
      <trkpt lat="47.62837" lon="6.65594">
        <ele>403.1</ele>
        <time>2022-08-28T17:03:01.000Z</time>
      </trkpt>
      <trkpt lat="47.62839" lon="6.65613">
        <ele>403.9</ele>
        <time>2022-08-28T17:03:05.000Z</time>
      </trkpt>
      <trkpt lat="47.62828" lon="6.65639">
        <ele>405</ele>
        <time>2022-08-28T17:03:14.000Z</time>
      </trkpt>
      <trkpt lat="47.62829" lon="6.6565">
        <ele>404.4</ele>
        <time>2022-08-28T17:03:19.000Z</time>
      </trkpt>
      <trkpt lat="47.62856" lon="6.65689">
        <ele>401.8</ele>
        <time>2022-08-28T17:04:00.000Z</time>
      </trkpt>
      <trkpt lat="47.62852" lon="6.65689">
        <ele>401.3</ele>
        <time>2022-08-28T17:04:08.000Z</time>
      </trkpt>
      <trkpt lat="47.62897" lon="6.65708">
        <ele>400.5</ele>
        <time>2022-08-28T17:04:19.000Z</time>
      </trkpt>
      <trkpt lat="47.62958" lon="6.65753">
        <ele>402.3</ele>
        <time>2022-08-28T17:05:16.000Z</time>
      </trkpt>
      <trkpt lat="47.62962" lon="6.6575">
        <ele>402.6</ele>
        <time>2022-08-28T17:05:29.000Z</time>
      </trkpt>
      <trkpt lat="47.62958" lon="6.65756">
        <ele>402</ele>
        <time>2022-08-28T17:05:44.000Z</time>
      </trkpt>
      <trkpt lat="47.62977" lon="6.65801">
        <ele>398.2</ele>
        <time>2022-08-28T17:06:01.000Z</time>
      </trkpt>
      <trkpt lat="47.62985" lon="6.65809">
        <ele>397.8</ele>
        <time>2022-08-28T17:06:15.000Z</time>
      </trkpt>
      <trkpt lat="47.62991" lon="6.65831">
        <ele>394.8</ele>
        <time>2022-08-28T17:06:21.000Z</time>
      </trkpt>
      <trkpt lat="47.63" lon="6.65913">
        <ele>385.6</ele>
        <time>2022-08-28T17:06:34.000Z</time>
      </trkpt>
      <trkpt lat="47.62994" lon="6.65931">
        <ele>382.2</ele>
        <time>2022-08-28T17:07:03.000Z</time>
      </trkpt>
      <trkpt lat="47.62993" lon="6.65929">
        <ele>381.7</ele>
        <time>2022-08-28T17:07:04.000Z</time>
      </trkpt>
      <trkpt lat="47.63004" lon="6.65984">
        <ele>378.7</ele>
        <time>2022-08-28T17:07:14.000Z</time>
      </trkpt>
      <trkpt lat="47.63009" lon="6.66029">
        <ele>373.6</ele>
        <time>2022-08-28T17:07:18.000Z</time>
      </trkpt>
      <trkpt lat="47.63013" lon="6.66089">
        <ele>373.3</ele>
        <time>2022-08-28T17:07:25.000Z</time>
      </trkpt>
      <trkpt lat="47.63011" lon="6.6611">
        <ele>373</ele>
        <time>2022-08-28T17:07:46.000Z</time>
      </trkpt>
      <trkpt lat="47.63014" lon="6.66135">
        <ele>371.5</ele>
        <time>2022-08-28T17:07:57.000Z</time>
      </trkpt>
      <trkpt lat="47.63008" lon="6.66294">
        <ele>356.6</ele>
        <time>2022-08-28T17:08:39.000Z</time>
      </trkpt>
      <trkpt lat="47.62993" lon="6.66306">
        <ele>356.7</ele>
        <time>2022-08-28T17:08:45.000Z</time>
      </trkpt>
      <trkpt lat="47.62996" lon="6.66308">
        <ele>356.2</ele>
        <time>2022-08-28T17:08:46.000Z</time>
      </trkpt>
      <trkpt lat="47.63033" lon="6.66286">
        <ele>354.8</ele>
        <time>2022-08-28T17:08:55.000Z</time>
      </trkpt>
      <trkpt lat="47.63045" lon="6.66269">
        <ele>354.8</ele>
        <time>2022-08-28T17:08:59.000Z</time>
      </trkpt>
      <trkpt lat="47.63056" lon="6.66248">
        <ele>355.1</ele>
        <time>2022-08-28T17:09:03.000Z</time>
      </trkpt>
      <trkpt lat="47.63071" lon="6.662">
        <ele>354.2</ele>
        <time>2022-08-28T17:09:10.000Z</time>
      </trkpt>
      <trkpt lat="47.63084" lon="6.66134">
        <ele>354</ele>
        <time>2022-08-28T17:09:18.000Z</time>
      </trkpt>
      <trkpt lat="47.63095" lon="6.66059">
        <ele>354.2</ele>
        <time>2022-08-28T17:09:27.000Z</time>
      </trkpt>
      <trkpt lat="47.63105" lon="6.66031">
        <ele>352.9</ele>
        <time>2022-08-28T17:09:31.000Z</time>
      </trkpt>
      <trkpt lat="47.63123" lon="6.66013">
        <ele>352.9</ele>
        <time>2022-08-28T17:09:35.000Z</time>
      </trkpt>
      <trkpt lat="47.63181" lon="6.65987">
        <ele>350.1</ele>
        <time>2022-08-28T17:09:45.000Z</time>
      </trkpt>
      <trkpt lat="47.63212" lon="6.65955">
        <ele>349.1</ele>
        <time>2022-08-28T17:09:51.000Z</time>
      </trkpt>
      <trkpt lat="47.63231" lon="6.65916">
        <ele>351.1</ele>
        <time>2022-08-28T17:09:56.000Z</time>
      </trkpt>
      <trkpt lat="47.63256" lon="6.65837">
        <ele>350.2</ele>
        <time>2022-08-28T17:10:05.000Z</time>
      </trkpt>
      <trkpt lat="47.63268" lon="6.65819">
        <ele>349.6</ele>
        <time>2022-08-28T17:10:08.000Z</time>
      </trkpt>
      <trkpt lat="47.63313" lon="6.65776">
        <ele>350.1</ele>
        <time>2022-08-28T17:10:16.000Z</time>
      </trkpt>
      <trkpt lat="47.63331" lon="6.65738">
        <ele>348.9</ele>
        <time>2022-08-28T17:10:20.000Z</time>
      </trkpt>
      <trkpt lat="47.63349" lon="6.65682">
        <ele>348.9</ele>
        <time>2022-08-28T17:10:25.000Z</time>
      </trkpt>
      <trkpt lat="47.63441" lon="6.65337">
        <ele>345</ele>
        <time>2022-08-28T17:10:55.000Z</time>
      </trkpt>
      <trkpt lat="47.63448" lon="6.65286">
        <ele>345.2</ele>
        <time>2022-08-28T17:11:00.000Z</time>
      </trkpt>
      <trkpt lat="47.63443" lon="6.65259">
        <ele>345.5</ele>
        <time>2022-08-28T17:11:03.000Z</time>
      </trkpt>
      <trkpt lat="47.63429" lon="6.65228">
        <ele>342.8</ele>
        <time>2022-08-28T17:11:07.000Z</time>
      </trkpt>
      <trkpt lat="47.63357" lon="6.65152">
        <ele>340.2</ele>
        <time>2022-08-28T17:11:22.000Z</time>
      </trkpt>
      <trkpt lat="47.63343" lon="6.65129">
        <ele>339.8</ele>
        <time>2022-08-28T17:11:33.000Z</time>
      </trkpt>
      <trkpt lat="47.63346" lon="6.65136">
        <ele>339.9</ele>
        <time>2022-08-28T17:11:46.000Z</time>
      </trkpt>
      <trkpt lat="47.63343" lon="6.65139">
        <ele>340.3</ele>
        <time>2022-08-28T17:12:03.000Z</time>
      </trkpt>
      <trkpt lat="47.63343" lon="6.65135">
        <ele>340.1</ele>
        <time>2022-08-28T17:12:34.000Z</time>
      </trkpt>
      <trkpt lat="47.63374" lon="6.65156">
        <ele>339</ele>
        <time>2022-08-28T17:13:47.000Z</time>
      </trkpt>
      <trkpt lat="47.63436" lon="6.65211">
        <ele>338.7</ele>
        <time>2022-08-28T17:13:58.000Z</time>
      </trkpt>
      <trkpt lat="47.63457" lon="6.65225">
        <ele>337</ele>
        <time>2022-08-28T17:14:03.000Z</time>
      </trkpt>
      <trkpt lat="47.63471" lon="6.65228">
        <ele>335.2</ele>
        <time>2022-08-28T17:14:16.000Z</time>
      </trkpt>
      <trkpt lat="47.63463" lon="6.6523">
        <ele>336.6</ele>
        <time>2022-08-28T17:15:02.000Z</time>
      </trkpt>
      <trkpt lat="47.6352" lon="6.65306">
        <ele>336</ele>
        <time>2022-08-28T17:15:25.000Z</time>
      </trkpt>
      <trkpt lat="47.63529" lon="6.65328">
        <ele>336</ele>
        <time>2022-08-28T17:15:28.000Z</time>
      </trkpt>
      <trkpt lat="47.63535" lon="6.65352">
        <ele>336.7</ele>
        <time>2022-08-28T17:15:31.000Z</time>
      </trkpt>
      <trkpt lat="47.63549" lon="6.6553">
        <ele>345.4</ele>
        <time>2022-08-28T17:15:54.000Z</time>
      </trkpt>
      <trkpt lat="47.63564" lon="6.65637">
        <ele>353.1</ele>
        <time>2022-08-28T17:16:09.000Z</time>
      </trkpt>
      <trkpt lat="47.63564" lon="6.65665">
        <ele>355.1</ele>
        <time>2022-08-28T17:16:13.000Z</time>
      </trkpt>
      <trkpt lat="47.63557" lon="6.65738">
        <ele>359.4</ele>
        <time>2022-08-28T17:16:23.000Z</time>
      </trkpt>
      <trkpt lat="47.63563" lon="6.65778">
        <ele>363.3</ele>
        <time>2022-08-28T17:16:29.000Z</time>
      </trkpt>
      <trkpt lat="47.63601" lon="6.65864">
        <ele>373.1</ele>
        <time>2022-08-28T17:16:46.000Z</time>
      </trkpt>
      <trkpt lat="47.63614" lon="6.65885">
        <ele>372.9</ele>
        <time>2022-08-28T17:16:52.000Z</time>
      </trkpt>
      <trkpt lat="47.63632" lon="6.65904">
        <ele>371</ele>
        <time>2022-08-28T17:17:01.000Z</time>
      </trkpt>
      <trkpt lat="47.63691" lon="6.65937">
        <ele>374.8</ele>
        <time>2022-08-28T17:17:18.000Z</time>
      </trkpt>
      <trkpt lat="47.6371" lon="6.65956">
        <ele>376.4</ele>
        <time>2022-08-28T17:17:25.000Z</time>
      </trkpt>
      <trkpt lat="47.63724" lon="6.65981">
        <ele>378.1</ele>
        <time>2022-08-28T17:17:32.000Z</time>
      </trkpt>
      <trkpt lat="47.6378" lon="6.66126">
        <ele>390</ele>
        <time>2022-08-28T17:18:00.000Z</time>
      </trkpt>
      <trkpt lat="47.63838" lon="6.66233">
        <ele>402.5</ele>
        <time>2022-08-28T17:18:25.000Z</time>
      </trkpt>
      <trkpt lat="47.63849" lon="6.66318">
        <ele>409.5</ele>
        <time>2022-08-28T17:18:40.000Z</time>
      </trkpt>
      <trkpt lat="47.63866" lon="6.66396">
        <ele>416.8</ele>
        <time>2022-08-28T17:18:55.000Z</time>
      </trkpt>
      <trkpt lat="47.63892" lon="6.66478">
        <ele>425.5</ele>
        <time>2022-08-28T17:19:12.000Z</time>
      </trkpt>
      <trkpt lat="47.63904" lon="6.66502">
        <ele>428.2</ele>
        <time>2022-08-28T17:19:17.000Z</time>
      </trkpt>
      <trkpt lat="47.6392" lon="6.66521">
        <ele>428.6</ele>
        <time>2022-08-28T17:19:22.000Z</time>
      </trkpt>
      <trkpt lat="47.63946" lon="6.66535">
        <ele>426.9</ele>
        <time>2022-08-28T17:19:28.000Z</time>
      </trkpt>
      <trkpt lat="47.63969" lon="6.66537">
        <ele>426.7</ele>
        <time>2022-08-28T17:19:33.000Z</time>
      </trkpt>
      <trkpt lat="47.63989" lon="6.66531">
        <ele>427</ele>
        <time>2022-08-28T17:19:38.000Z</time>
      </trkpt>
      <trkpt lat="47.64015" lon="6.66511">
        <ele>428.1</ele>
        <time>2022-08-28T17:19:45.000Z</time>
      </trkpt>
      <trkpt lat="47.64061" lon="6.66463">
        <ele>430.1</ele>
        <time>2022-08-28T17:19:58.000Z</time>
      </trkpt>
      <trkpt lat="47.64115" lon="6.66388">
        <ele>437.9</ele>
        <time>2022-08-28T17:20:16.000Z</time>
      </trkpt>
      <trkpt lat="47.64131" lon="6.66384">
        <ele>441</ele>
        <time>2022-08-28T17:20:21.000Z</time>
      </trkpt>
      <trkpt lat="47.64143" lon="6.664">
        <ele>442.7</ele>
        <time>2022-08-28T17:20:27.000Z</time>
      </trkpt>
      <trkpt lat="47.64146" lon="6.66419">
        <ele>442.7</ele>
        <time>2022-08-28T17:20:32.000Z</time>
      </trkpt>
      <trkpt lat="47.64148" lon="6.6649">
        <ele>442.6</ele>
        <time>2022-08-28T17:20:43.000Z</time>
      </trkpt>
      <trkpt lat="47.64165" lon="6.66652">
        <ele>438.4</ele>
        <time>2022-08-28T17:20:58.000Z</time>
      </trkpt>
      <trkpt lat="47.64171" lon="6.66748">
        <ele>437.3</ele>
        <time>2022-08-28T17:21:07.000Z</time>
      </trkpt>
      <trkpt lat="47.64168" lon="6.66793">
        <ele>435.2</ele>
        <time>2022-08-28T17:21:12.000Z</time>
      </trkpt>
      <trkpt lat="47.64149" lon="6.66864">
        <ele>432.8</ele>
        <time>2022-08-28T17:21:21.000Z</time>
      </trkpt>
      <trkpt lat="47.64148" lon="6.66897">
        <ele>433.8</ele>
        <time>2022-08-28T17:21:25.000Z</time>
      </trkpt>
      <trkpt lat="47.64164" lon="6.66975">
        <ele>436</ele>
        <time>2022-08-28T17:21:34.000Z</time>
      </trkpt>
      <trkpt lat="47.64173" lon="6.6704">
        <ele>438.8</ele>
        <time>2022-08-28T17:21:41.000Z</time>
      </trkpt>
      <trkpt lat="47.64184" lon="6.67174">
        <ele>439.9</ele>
        <time>2022-08-28T17:21:56.000Z</time>
      </trkpt>
      <trkpt lat="47.64205" lon="6.6732">
        <ele>438.8</ele>
        <time>2022-08-28T17:22:12.000Z</time>
      </trkpt>
      <trkpt lat="47.64209" lon="6.67409">
        <ele>436.6</ele>
        <time>2022-08-28T17:22:23.000Z</time>
      </trkpt>
      <trkpt lat="47.64214" lon="6.67432">
        <ele>436</ele>
        <time>2022-08-28T17:22:26.000Z</time>
      </trkpt>
      <trkpt lat="47.64224" lon="6.67453">
        <ele>435.9</ele>
        <time>2022-08-28T17:22:29.000Z</time>
      </trkpt>
      <trkpt lat="47.64282" lon="6.6754">
        <ele>436.3</ele>
        <time>2022-08-28T17:22:43.000Z</time>
      </trkpt>
      <trkpt lat="47.64315" lon="6.67573">
        <ele>436.6</ele>
        <time>2022-08-28T17:22:52.000Z</time>
      </trkpt>
      <trkpt lat="47.64321" lon="6.67569">
        <ele>436.5</ele>
        <time>2022-08-28T17:22:56.000Z</time>
      </trkpt>
      <trkpt lat="47.64326" lon="6.67549">
        <ele>435.6</ele>
        <time>2022-08-28T17:23:11.000Z</time>
      </trkpt>
    </trkseg>
  </trk>
</gpx>